Pagina principale
METAR-TAF:

METAR-TAF

Aeroporti :

Zeltweg, Austria

Aerodromo Hinterstoisser-Zeltweg

latitudine: 47-12N, longitudine: 014-45E, altezza: 677 m

Osservazione

Il bollettino è stato emesso 30 minuti fa, alle 15:20 UTC
Vento 4 kt da direzioni variabili
Temperature 2°C
Umidità 64%
Pressione 1012 hPa

METAR: LOXZ 191520Z VRB04KT 20KM FEW030SC SCT050SC 02/M04 Q1012 NOSIG

Ora: 16:50 (15:50 UTC)

Previsione

Il bollettino è stato emesso 4 ore e 35 minuti fa, alle 11:15 UTC
Previsione valida dal 19 alle 12 UTC al 19 alle 21 UTC
Vento 3 kt da direzioni variabili
Visibilità 10 km o più
Poco nuvoloso ad un'altezza di 5000 ft
Nubi sparse ad un'altezza di 6000 ft
Temporaneamente
dal 19 alle 12 UTC al 19 alle 17 UTC
Vento 12 kt da ovest/nord-ovest
Visibilità: 6000 m
Poco nuvoloso ad un'altezza di 3000 ft, Cumulo congesto.
Nuvoloso ad un'altezza di 4000 ft
rovesci di neve

TAF: LOXZ 191115Z 1912/1921 VRB03KT 9999 FEW050 SCT060 TEMPO 1912/1917 30012KT 6000 -SHSN FEW030TCU BKN040

Osservazioni e previsioni meteorologiche di più di 4000 aeroporti (messaggi METAR e TAF).

Le stazioni disponibili sono rappresentate dai dischi gialli e rossi sulla carta.

Puntare il mouse per vedere il nome della stazione.

Clicca sopra per visualizzare le osservazioni e previsioni meteorologiche.

Per cambiare la mappa : fare clic sui pulsanti verdi con una croce nera per ingrandire, il pulsante verde con un trattino per diminuire, o sulla freccia verde per le mappe adiacenti.


METAR-TAF: